Old Hickory, Tennessee
Current Conditions -  °F | °C
As of 6:53 PM on Monday 20 Oct 2014 (Local Time) from KBNA Reporting Station
Clear Clear  
Wind Chill: 59°   Ceiling: Unl
Heat Index: 59°   Visibility: 10mi
Dew Point: 50°   Wind: 5mph
Humidity: 72%   Direction: 200°SSW
Pressure: 30"   Gusts: NA
Location:  36.26°N, 86.65°W
Report Text: KBNA 202353Z 20004KT 10SM CLR 15/10 A3000 RMK AO2 SLP156 T01500100 10206 20150 55001
Loading
Personal Weather Stations






























Interactive Weather Map
Tropical Storm Tracking
New forecast layout! Learn more

10-Day Weather Forecast

Advertisements
Track Severe Weather on mobile